sensor_id;sensor_type;location;lat;lon;timestamp;pressure;altitude;pressure_sealevel;temperature;humidity
35553;BME280;21656;46.054;13.614;2023-01-29T07:10:07;101499.22;;;3.63;80.02
35553;BME280;21656;46.054;13.614;2023-01-29T07:12:33;101516.41;;;3.80;79.01
35553;BME280;21656;46.054;13.614;2023-01-29T07:14:58;101520.13;;;3.76;79.19
35553;BME280;21656;46.054;13.614;2023-01-29T07:17:24;101524.88;;;3.66;79.56
35553;BME280;21656;46.054;13.614;2023-01-29T07:19:49;101526.53;;;3.70;79.83
35553;BME280;21656;46.054;13.614;2023-01-29T07:22:14;101526.47;;;3.72;79.26
35553;BME280;21656;46.054;13.614;2023-01-29T07:24:40;101526.16;;;3.81;79.20
35553;BME280;21656;46.054;13.614;2023-01-29T07:27:06;101532.72;;;3.71;79.24
35553;BME280;21656;46.054;13.614;2023-01-29T07:29:31;101532.56;;;3.75;79.68
35553;BME280;21656;46.054;13.614;2023-01-29T07:31:57;101533.59;;;3.71;80.67
35553;BME280;21656;46.054;13.614;2023-01-29T07:34:22;101544.91;;;3.78;80.17
35553;BME280;21656;46.054;13.614;2023-01-29T07:36:47;101538.53;;;3.82;79.00
35553;BME280;21656;46.054;13.614;2023-01-29T07:39:13;101539.47;;;3.81;78.84
35553;BME280;21656;46.054;13.614;2023-01-29T07:41:38;101546.66;;;3.79;78.92
35553;BME280;21656;46.054;13.614;2023-01-29T07:44:04;101546.28;;;3.89;78.67
35553;BME280;21656;46.054;13.614;2023-01-29T07:46:29;101549.66;;;3.95;78.64
35553;BME280;21656;46.054;13.614;2023-01-29T07:48:54;101544.31;;;3.95;78.52
35553;BME280;21656;46.054;13.614;2023-01-29T07:51:22;101548.16;;;3.87;77.80
35553;BME280;21656;46.054;13.614;2023-01-29T07:53:47;101539.91;;;3.94;78.67
35553;BME280;21656;46.054;13.614;2023-01-29T07:56:12;101546.78;;;4.01;77.96
35553;BME280;21656;46.054;13.614;2023-01-29T07:58:38;101545.03;;;4.00;77.80
35553;BME280;21656;46.054;13.614;2023-01-29T08:01:07;101531.88;;;3.95;78.14
35553;BME280;21656;46.054;13.614;2023-01-29T08:03:32;101545.97;;;3.99;78.01
35553;BME280;21656;46.054;13.614;2023-01-29T08:05:58;101539.66;;;4.01;78.12
35553;BME280;21656;46.054;13.614;2023-01-29T08:08:23;101549.09;;;4.10;77.64
35553;BME280;21656;46.054;13.614;2023-01-29T08:10:50;101547.59;;;4.03;77.79
35553;BME280;21656;46.054;13.614;2023-01-29T08:13:15;101558.19;;;4.04;78.70
35553;BME280;21656;46.054;13.614;2023-01-29T08:15:44;101551.28;;;3.99;78.50
35553;BME280;21656;46.054;13.614;2023-01-29T08:18:10;101561.09;;;3.98;79.27
35553;BME280;21656;46.054;13.614;2023-01-29T08:20:36;101560.97;;;4.01;79.29
35553;BME280;21656;46.054;13.614;2023-01-29T08:23:03;101557.44;;;4.01;78.44
35553;BME280;21656;46.054;13.614;2023-01-29T08:25:30;101554.22;;;4.16;77.78
35553;BME280;21656;46.054;13.614;2023-01-29T08:27:56;101554.28;;;4.15;77.58
35553;BME280;21656;46.054;13.614;2023-01-29T08:30:23;101552.81;;;4.06;77.54
35553;BME280;21656;46.054;13.614;2023-01-29T08:32:49;101553.00;;;4.00;77.25
35553;BME280;21656;46.054;13.614;2023-01-29T08:35:14;101544.72;;;4.09;77.16
35553;BME280;21656;46.054;13.614;2023-01-29T08:37:39;101554.06;;;4.21;77.33
35553;BME280;21656;46.054;13.614;2023-01-29T08:40:05;101542.44;;;4.47;78.10
35553;BME280;21656;46.054;13.614;2023-01-29T08:42:33;101548.75;;;4.68;75.75
35553;BME280;21656;46.054;13.614;2023-01-29T08:44:58;101541.44;;;4.96;74.34
35553;BME280;21656;46.054;13.614;2023-01-29T08:47:24;101541.13;;;5.04;72.10
35553;BME280;21656;46.054;13.614;2023-01-29T08:49:49;101547.03;;;5.12;71.30
35553;BME280;21656;46.054;13.614;2023-01-29T08:52:15;101556.34;;;5.24;71.12
35553;BME280;21656;46.054;13.614;2023-01-29T08:54:40;101546.13;;;5.34;71.19
35553;BME280;21656;46.054;13.614;2023-01-29T08:57:05;101549.63;;;5.36;69.41
35553;BME280;21656;46.054;13.614;2023-01-29T08:59:31;101546.91;;;5.37;69.13
35553;BME280;21656;46.054;13.614;2023-01-29T09:01:56;101562.84;;;5.39;69.34
35553;BME280;21656;46.054;13.614;2023-01-29T09:04:22;101558.78;;;5.52;68.97
35553;BME280;21656;46.054;13.614;2023-01-29T09:06:47;101558.97;;;5.68;69.19
35553;BME280;21656;46.054;13.614;2023-01-29T09:09:13;101558.03;;;5.69;67.79
35553;BME280;21656;46.054;13.614;2023-01-29T09:11:38;101569.22;;;5.79;67.32
35553;BME280;21656;46.054;13.614;2023-01-29T09:14:05;101553.19;;;5.79;67.11
35553;BME280;21656;46.054;13.614;2023-01-29T09:16:30;101559.53;;;5.76;66.99
35553;BME280;21656;46.054;13.614;2023-01-29T09:18:55;101565.06;;;5.72;66.61
35553;BME280;21656;46.054;13.614;2023-01-29T09:21:21;101564.72;;;5.79;65.72
35553;BME280;21656;46.054;13.614;2023-01-29T09:23:46;101570.84;;;5.83;66.50
35553;BME280;21656;46.054;13.614;2023-01-29T09:26:12;101573.19;;;5.91;65.52
35553;BME280;21656;46.054;13.614;2023-01-29T09:28:37;101566.31;;;5.85;65.97
35553;BME280;21656;46.054;13.614;2023-01-29T09:31:03;101561.75;;;6.07;65.97
35553;BME280;21656;46.054;13.614;2023-01-29T09:33:28;101564.00;;;6.18;65.57
35553;BME280;21656;46.054;13.614;2023-01-29T09:35:55;101571.75;;;6.24;65.55
35553;BME280;21656;46.054;13.614;2023-01-29T09:38:21;101567.34;;;6.23;64.68
35553;BME280;21656;46.054;13.614;2023-01-29T09:43:47;101569.31;;;6.39;63.46
35553;BME280;21656;46.054;13.614;2023-01-29T09:46:22;101562.88;;;6.43;63.66
35553;BME280;21656;46.054;13.614;2023-01-29T09:49:00;101560.44;;;6.57;62.85
35553;BME280;21656;46.054;13.614;2023-01-29T09:51:34;101571.56;;;6.48;62.65
35553;BME280;21656;46.054;13.614;2023-01-29T09:54:25;101563.03;;;6.40;63.21
35553;BME280;21656;46.054;13.614;2023-01-29T09:56:55;101561.31;;;6.39;62.72
35553;BME280;21656;46.054;13.614;2023-01-29T09:59:23;101569.84;;;6.47;63.68
35553;BME280;21656;46.054;13.614;2023-01-29T10:02:33;101564.13;;;6.55;63.15
35553;BME280;21656;46.054;13.614;2023-01-29T10:07:47;101554.84;;;6.82;61.23
35553;BME280;21656;46.054;13.614;2023-01-29T10:21:07;101541.25;;;7.23;59.56
35553;BME280;21656;46.054;13.614;2023-01-29T10:23:48;101525.53;;;7.34;58.72
35553;BME280;21656;46.054;13.614;2023-01-29T10:26:15;101535.47;;;7.32;58.54
35553;BME280;21656;46.054;13.614;2023-01-29T10:28:44;101526.03;;;7.43;59.33
35553;BME280;21656;46.054;13.614;2023-01-29T10:33:51;101527.38;;;7.86;57.04
35553;BME280;21656;46.054;13.614;2023-01-29T10:36:46;101515.31;;;7.60;56.99
35553;BME280;21656;46.054;13.614;2023-01-29T10:39:17;101520.53;;;7.80;57.10
35553;BME280;21656;46.054;13.614;2023-01-29T10:44:46;101507.63;;;8.04;56.49
35553;BME280;21656;46.054;13.614;2023-01-29T10:50:24;101500.25;;;8.43;54.71
35553;BME280;21656;46.054;13.614;2023-01-29T10:58:37;101496.75;;;8.58;53.52
35553;BME280;21656;46.054;13.614;2023-01-29T11:01:03;101480.09;;;8.67;53.67
35553;BME280;21656;46.054;13.614;2023-01-29T11:03:31;101484.88;;;9.10;52.51
35553;BME280;21656;46.054;13.614;2023-01-29T11:08:30;101481.22;;;9.11;52.50
35553;BME280;21656;46.054;13.614;2023-01-29T11:13:44;101463.94;;;9.61;51.59
35553;BME280;21656;46.054;13.614;2023-01-29T11:16:11;101469.25;;;9.47;50.19
35553;BME280;21656;46.054;13.614;2023-01-29T11:18:54;101462.94;;;9.92;50.31
35553;BME280;21656;46.054;13.614;2023-01-29T11:21:20;101449.97;;;9.99;49.71
35553;BME280;21656;46.054;13.614;2023-01-29T11:23:46;101457.66;;;10.19;49.19
35553;BME280;21656;46.054;13.614;2023-01-29T11:26:17;101448.44;;;10.24;49.14
35553;BME280;21656;46.054;13.614;2023-01-29T11:28:47;101435.09;;;10.36;48.48
35553;BME280;21656;46.054;13.614;2023-01-29T11:31:27;101444.53;;;10.44;48.15
35553;BME280;21656;46.054;13.614;2023-01-29T11:34:20;101436.53;;;10.56;48.99
35553;BME280;21656;46.054;13.614;2023-01-29T11:36:56;101437.78;;;10.51;48.33
35553;BME280;21656;46.054;13.614;2023-01-29T11:39:23;101434.28;;;10.63;48.20
35553;BME280;21656;46.054;13.614;2023-01-29T11:41:54;101426.47;;;10.73;47.25
35553;BME280;21656;46.054;13.614;2023-01-29T11:44:26;101432.59;;;10.89;46.42
35553;BME280;21656;46.054;13.614;2023-01-29T11:46:52;101418.63;;;10.97;46.82
35553;BME280;21656;46.054;13.614;2023-01-29T11:51:54;101414.63;;;10.75;46.80
35553;BME280;21656;46.054;13.614;2023-01-29T11:54:24;101410.50;;;11.24;47.21
35553;BME280;21656;46.054;13.614;2023-01-29T11:56:53;101413.03;;;11.40;45.63
35553;BME280;21656;46.054;13.614;2023-01-29T11:59:42;101411.56;;;11.21;45.50
35553;BME280;21656;46.054;13.614;2023-01-29T12:02:24;101406.81;;;11.12;46.64
35553;BME280;21656;46.054;13.614;2023-01-29T12:04:57;101392.31;;;11.53;45.83
35553;BME280;21656;46.054;13.614;2023-01-29T12:07:24;101386.72;;;11.82;45.49
35553;BME280;21656;46.054;13.614;2023-01-29T12:09:53;101388.47;;;12.08;44.46
35553;BME280;21656;46.054;13.614;2023-01-29T12:12:32;101395.28;;;12.01;43.74
35553;BME280;21656;46.054;13.614;2023-01-29T12:15:13;101389.75;;;11.90;45.12
35553;BME280;21656;46.054;13.614;2023-01-29T12:17:41;101395.03;;;11.79;44.88
35553;BME280;21656;46.054;13.614;2023-01-29T12:20:13;101390.06;;;11.60;44.66
35553;BME280;21656;46.054;13.614;2023-01-29T12:22:52;101389.63;;;11.66;44.92
35553;BME280;21656;46.054;13.614;2023-01-29T12:25:40;101386.78;;;11.42;44.01
35553;BME280;21656;46.054;13.614;2023-01-29T12:37:03;101380.81;;;11.89;43.46
35553;BME280;21656;46.054;13.614;2023-01-29T12:39:34;101373.13;;;11.45;44.42
35553;BME280;21656;46.054;13.614;2023-01-29T12:42:21;101376.59;;;11.07;44.84
35553;BME280;21656;46.054;13.614;2023-01-29T12:45:07;101357.84;;;11.18;44.91
35553;BME280;21656;46.054;13.614;2023-01-29T12:47:42;101362.81;;;11.12;45.23
35553;BME280;21656;46.054;13.614;2023-01-29T12:52:45;101354.47;;;11.55;45.35
35553;BME280;21656;46.054;13.614;2023-01-29T12:55:19;101361.88;;;11.77;44.50
35553;BME280;21656;46.054;13.614;2023-01-29T13:00:24;101350.47;;;11.99;44.83
35553;BME280;21656;46.054;13.614;2023-01-29T13:02:56;101359.31;;;12.13;43.00
35553;BME280;21656;46.054;13.614;2023-01-29T13:05:29;101363.50;;;12.05;44.54
35553;BME280;21656;46.054;13.614;2023-01-29T13:08:29;101373.97;;;11.84;43.47
35553;BME280;21656;46.054;13.614;2023-01-29T13:10:53;101370.78;;;11.91;43.95
35553;BME280;21656;46.054;13.614;2023-01-29T13:13:27;101359.84;;;12.06;42.58
35553;BME280;21656;46.054;13.614;2023-01-29T13:15:55;101351.22;;;12.01;44.59
35553;BME280;21656;46.054;13.614;2023-01-29T13:21:13;101334.38;;;11.46;43.73
35553;BME280;21656;46.054;13.614;2023-01-29T13:23:52;101338.16;;;11.43;45.27
35553;BME280;21656;46.054;13.614;2023-01-29T13:26:20;101332.53;;;11.72;44.87
35553;BME280;21656;46.054;13.614;2023-01-29T13:28:46;101324.44;;;12.10;44.63
35553;BME280;21656;46.054;13.614;2023-01-29T13:36:46;101339.00;;;12.21;44.38
35553;BME280;21656;46.054;13.614;2023-01-29T13:39:51;101328.75;;;11.75;43.80
35553;BME280;21656;46.054;13.614;2023-01-29T13:42:18;101325.94;;;11.12;44.83
35553;BME280;21656;46.054;13.614;2023-01-29T13:44:49;101330.94;;;10.51;46.60
35553;BME280;21656;46.054;13.614;2023-01-29T13:47:34;101335.25;;;10.54;46.58
35553;BME280;21656;46.054;13.614;2023-01-29T13:50:23;101330.88;;;10.10;46.67
35553;BME280;21656;46.054;13.614;2023-01-29T13:53:01;101331.50;;;9.58;47.73
35553;BME280;21656;46.054;13.614;2023-01-29T13:58:02;101324.66;;;9.52;49.15
35553;BME280;21656;46.054;13.614;2023-01-29T14:07:57;101312.19;;;8.46;51.35
35553;BME280;21656;46.054;13.614;2023-01-29T14:10:26;101312.09;;;8.16;52.16
35553;BME280;21656;46.054;13.614;2023-01-29T14:13:38;101307.16;;;8.08;52.76
35553;BME280;21656;46.054;13.614;2023-01-29T14:15:38;101303.75;;;8.04;52.41
35553;BME280;21656;46.054;13.614;2023-01-29T14:25:44;101298.44;;;7.55;54.45
35553;BME280;21656;46.054;13.614;2023-01-29T14:28:19;101310.19;;;7.53;54.76
35553;BME280;21656;46.054;13.614;2023-01-29T14:30:47;101316.88;;;7.44;54.77
35553;BME280;21656;46.054;13.614;2023-01-29T14:33:35;101313.63;;;7.22;55.05
35553;BME280;21656;46.054;13.614;2023-01-29T14:36:10;101309.66;;;7.11;56.00
35553;BME280;21656;46.054;13.614;2023-01-29T14:38:37;101311.25;;;6.98;55.76
35553;BME280;21656;46.054;13.614;2023-01-29T14:41:16;101318.59;;;6.77;56.81
35553;BME280;21656;46.054;13.614;2023-01-29T14:43:46;101321.81;;;6.84;56.76
35553;BME280;21656;46.054;13.614;2023-01-29T14:48:58;101315.34;;;6.70;57.70
35553;BME280;21656;46.054;13.614;2023-01-29T14:51:25;101317.78;;;6.75;57.42
35553;BME280;21656;46.054;13.614;2023-01-29T14:54:24;101316.84;;;6.59;58.20
35553;BME280;21656;46.054;13.614;2023-01-29T15:02:18;101316.69;;;6.43;59.21
35553;BME280;21656;46.054;13.614;2023-01-29T15:04:49;101321.19;;;6.42;59.15
35553;BME280;21656;46.054;13.614;2023-01-29T15:07:33;101324.25;;;6.35;58.94
35553;BME280;21656;46.054;13.614;2023-01-29T15:10:37;101319.22;;;6.28;59.52
35553;BME280;21656;46.054;13.614;2023-01-29T15:13:11;101325.03;;;6.18;60.48
35553;BME280;21656;46.054;13.614;2023-01-29T15:15:47;101311.81;;;6.15;60.64
35553;BME280;21656;46.054;13.614;2023-01-29T15:18:28;101322.09;;;6.05;61.18
35553;BME280;21656;46.054;13.614;2023-01-29T15:21:22;101307.38;;;5.96;60.77
35553;BME280;21656;46.054;13.614;2023-01-29T15:24:02;101311.59;;;5.81;61.46
35553;BME280;21656;46.054;13.614;2023-01-29T15:26:28;101310.44;;;5.87;62.27
35553;BME280;21656;46.054;13.614;2023-01-29T15:28:56;101311.69;;;5.80;62.57
35553;BME280;21656;46.054;13.614;2023-01-29T15:31:22;101317.28;;;5.74;63.15
35553;BME280;21656;46.054;13.614;2023-01-29T15:33:52;101317.59;;;5.68;62.84
35553;BME280;21656;46.054;13.614;2023-01-29T15:36:22;101320.34;;;5.85;62.94
35553;BME280;21656;46.054;13.614;2023-01-29T15:38:48;101322.63;;;5.74;63.33
35553;BME280;21656;46.054;13.614;2023-01-29T15:41:18;101315.78;;;5.68;63.22
35553;BME280;21656;46.054;13.614;2023-01-29T15:43:49;101319.38;;;5.67;63.83
35553;BME280;21656;46.054;13.614;2023-01-29T15:46:26;101321.13;;;5.68;63.71
35553;BME280;21656;46.054;13.614;2023-01-29T15:48:56;101317.94;;;5.60;63.65
35553;BME280;21656;46.054;13.614;2023-01-29T15:51:24;101328.44;;;5.44;63.96
35553;BME280;21656;46.054;13.614;2023-01-29T15:54:00;101325.56;;;5.28;64.44
35553;BME280;21656;46.054;13.614;2023-01-29T15:56:49;101332.72;;;5.28;65.12
35553;BME280;21656;46.054;13.614;2023-01-29T15:59:18;101332.22;;;5.19;65.80
35553;BME280;21656;46.054;13.614;2023-01-29T16:01:46;101323.00;;;5.27;65.89
35553;BME280;21656;46.054;13.614;2023-01-29T16:04:22;101332.25;;;5.18;66.10
35553;BME280;21656;46.054;13.614;2023-01-29T16:06:50;101329.66;;;5.16;66.79
35553;BME280;21656;46.054;13.614;2023-01-29T16:09:19;101333.59;;;5.08;66.32
35553;BME280;21656;46.054;13.614;2023-01-29T16:11:49;101339.13;;;5.03;67.63
35553;BME280;21656;46.054;13.614;2023-01-29T16:14:19;101337.47;;;5.00;67.67
35553;BME280;21656;46.054;13.614;2023-01-29T16:16:46;101334.59;;;5.05;66.95
35553;BME280;21656;46.054;13.614;2023-01-29T16:19:21;101342.41;;;4.89;67.36
35553;BME280;21656;46.054;13.614;2023-01-29T16:21:59;101341.88;;;4.81;68.59
35553;BME280;21656;46.054;13.614;2023-01-29T16:24:26;101335.91;;;4.74;68.45
35553;BME280;21656;46.054;13.614;2023-01-29T16:26:58;101333.38;;;4.71;68.88
35553;BME280;21656;46.054;13.614;2023-01-29T16:29:29;101336.53;;;4.59;69.85
35553;BME280;21656;46.054;13.614;2023-01-29T16:31:56;101329.59;;;4.55;70.52
35553;BME280;21656;46.054;13.614;2023-01-29T16:34:37;101326.09;;;4.53;70.50
35553;BME280;21656;46.054;13.614;2023-01-29T16:37:33;101331.53;;;4.51;70.92
35553;BME280;21656;46.054;13.614;2023-01-29T16:40:12;101334.19;;;4.51;73.23
35553;BME280;21656;46.054;13.614;2023-01-29T16:42:39;101343.84;;;4.32;74.84
35553;BME280;21656;46.054;13.614;2023-01-29T16:45:25;101339.09;;;4.18;76.77
35553;BME280;21656;46.054;13.614;2023-01-29T16:48:01;101342.97;;;4.09;78.07
35553;BME280;21656;46.054;13.614;2023-01-29T16:50:44;101347.56;;;4.06;79.48
35553;BME280;21656;46.054;13.614;2023-01-29T16:55:43;101347.00;;;3.98;81.26
35553;BME280;21656;46.054;13.614;2023-01-29T16:58:24;101347.69;;;4.03;81.31
35553;BME280;21656;46.054;13.614;2023-01-29T17:00:54;101354.16;;;3.96;81.18
35553;BME280;21656;46.054;13.614;2023-01-29T17:03:23;101361.00;;;3.79;81.65
35553;BME280;21656;46.054;13.614;2023-01-29T17:05:49;101363.91;;;3.73;82.47
35553;BME280;21656;46.054;13.614;2023-01-29T17:10:52;101364.72;;;3.75;84.13
35553;BME280;21656;46.054;13.614;2023-01-29T17:13:33;101365.91;;;3.66;83.44
35553;BME280;21656;46.054;13.614;2023-01-29T17:16:02;101367.72;;;3.66;83.52
35553;BME280;21656;46.054;13.614;2023-01-29T17:18:38;101368.22;;;3.52;82.18
35553;BME280;21656;46.054;13.614;2023-01-29T17:21:04;101376.03;;;3.57;84.18
35553;BME280;21656;46.054;13.614;2023-01-29T17:23:30;101369.00;;;3.54;84.42
35553;BME280;21656;46.054;13.614;2023-01-29T17:25:55;101377.63;;;3.37;86.70
35553;BME280;21656;46.054;13.614;2023-01-29T17:28:21;101382.25;;;3.32;87.71
35553;BME280;21656;46.054;13.614;2023-01-29T17:30:46;101384.50;;;3.18;87.62
35553;BME280;21656;46.054;13.614;2023-01-29T17:33:15;101386.00;;;3.00;90.51
35553;BME280;21656;46.054;13.614;2023-01-29T17:35:42;101385.03;;;3.02;90.15
35553;BME280;21656;46.054;13.614;2023-01-29T17:38:13;101392.88;;;3.07;91.23
35553;BME280;21656;46.054;13.614;2023-01-29T17:40:46;101388.53;;;3.04;91.38
35553;BME280;21656;46.054;13.614;2023-01-29T17:43:14;101390.31;;;3.04;89.92
35553;BME280;21656;46.054;13.614;2023-01-29T17:45:40;101388.97;;;2.91;93.02
35553;BME280;21656;46.054;13.614;2023-01-29T17:48:17;101389.34;;;2.80;94.02
35553;BME280;21656;46.054;13.614;2023-01-29T17:50:44;101384.50;;;2.65;95.50
35553;BME280;21656;46.054;13.614;2023-01-29T17:53:16;101387.38;;;2.58;96.32
35553;BME280;21656;46.054;13.614;2023-01-29T17:55:42;101383.06;;;2.54;96.74
35553;BME280;21656;46.054;13.614;2023-01-29T17:58:15;101386.69;;;2.52;95.97
35553;BME280;21656;46.054;13.614;2023-01-29T18:00:41;101385.16;;;2.45;97.41
35553;BME280;21656;46.054;13.614;2023-01-29T18:03:07;101379.69;;;2.49;97.43
35553;BME280;21656;46.054;13.614;2023-01-29T18:05:34;101379.38;;;2.30;99.79
35553;BME280;21656;46.054;13.614;2023-01-29T18:08:00;101382.97;;;2.29;99.50
35553;BME280;21656;46.054;13.614;2023-01-29T18:10:27;101383.91;;;2.28;99.73
35553;BME280;21656;46.054;13.614;2023-01-29T18:12:52;101379.38;;;2.30;100.00
35553;BME280;21656;46.054;13.614;2023-01-29T18:15:18;101376.00;;;2.25;100.00
35553;BME280;21656;46.054;13.614;2023-01-29T18:17:43;101382.84;;;2.34;99.68
35553;BME280;21656;46.054;13.614;2023-01-29T18:20:20;101377.44;;;2.35;100.00
35553;BME280;21656;46.054;13.614;2023-01-29T18:22:47;101367.34;;;2.19;100.00
35553;BME280;21656;46.054;13.614;2023-01-29T18:25:12;101369.94;;;2.20;100.00
35553;BME280;21656;46.054;13.614;2023-01-29T18:27:38;101363.78;;;2.20;100.00
35553;BME280;21656;46.054;13.614;2023-01-29T18:30:04;101363.25;;;2.08;100.00
35553;BME280;21656;46.054;13.614;2023-01-29T18:32:30;101361.19;;;1.88;100.00
35553;BME280;21656;46.054;13.614;2023-01-29T18:34:55;101361.50;;;1.78;100.00
35553;BME280;21656;46.054;13.614;2023-01-29T18:37:21;101374.69;;;1.81;100.00
35553;BME280;21656;46.054;13.614;2023-01-29T18:39:46;101365.91;;;1.77;100.00
35553;BME280;21656;46.054;13.614;2023-01-29T18:42:12;101370.88;;;1.89;100.00
35553;BME280;21656;46.054;13.614;2023-01-29T18:44:37;101365.44;;;1.94;100.00
35553;BME280;21656;46.054;13.614;2023-01-29T18:47:03;101361.19;;;1.88;100.00
35553;BME280;21656;46.054;13.614;2023-01-29T18:49:30;101370.25;;;1.81;100.00
35553;BME280;21656;46.054;13.614;2023-01-29T18:51:56;101375.69;;;1.77;100.00
35553;BME280;21656;46.054;13.614;2023-01-29T18:54:21;101376.84;;;1.68;100.00
35553;BME280;21656;46.054;13.614;2023-01-29T18:56:47;101374.22;;;1.66;100.00
35553;BME280;21656;46.054;13.614;2023-01-29T18:59:13;101380.22;;;1.73;100.00
35553;BME280;21656;46.054;13.614;2023-01-29T19:01:38;101376.53;;;1.77;100.00
35553;BME280;21656;46.054;13.614;2023-01-29T19:04:04;101378.44;;;1.73;100.00
35553;BME280;21656;46.054;13.614;2023-01-29T19:06:32;101376.59;;;1.76;100.00
35553;BME280;21656;46.054;13.614;2023-01-29T19:08:58;101383.22;;;1.61;100.00
35553;BME280;21656;46.054;13.614;2023-01-29T19:11:25;101379.72;;;1.59;100.00
35553;BME280;21656;46.054;13.614;2023-01-29T19:13:50;101378.25;;;1.48;100.00
35553;BME280;21656;46.054;13.614;2023-01-29T19:16:16;101375.22;;;1.62;100.00
35553;BME280;21656;46.054;13.614;2023-01-29T19:18:41;101377.66;;;1.70;100.00
35553;BME280;21656;46.054;13.614;2023-01-29T19:21:10;101378.38;;;1.44;100.00
35553;BME280;21656;46.054;13.614;2023-01-29T19:23:36;101370.50;;;1.41;100.00
35553;BME280;21656;46.054;13.614;2023-01-29T19:26:01;101366.03;;;1.43;100.00
35553;BME280;21656;46.054;13.614;2023-01-29T19:28:27;101362.75;;;1.33;100.00
35553;BME280;21656;46.054;13.614;2023-01-29T19:30:55;101363.81;;;1.26;100.00
35553;BME280;21656;46.054;13.614;2023-01-29T19:33:22;101372.06;;;1.17;100.00
35553;BME280;21656;46.054;13.614;2023-01-29T19:35:47;101368.03;;;1.35;100.00
35553;BME280;21656;46.054;13.614;2023-01-29T19:38:13;101360.13;;;1.32;100.00
35553;BME280;21656;46.054;13.614;2023-01-29T19:40:46;101358.22;;;1.37;100.00
35553;BME280;21656;46.054;13.614;2023-01-29T19:43:12;101370.88;;;1.27;100.00
35553;BME280;21656;46.054;13.614;2023-01-29T19:45:43;101374.41;;;1.27;100.00
35553;BME280;21656;46.054;13.614;2023-01-29T19:48:08;101374.41;;;1.27;100.00
35553;BME280;21656;46.054;13.614;2023-01-29T19:50:34;101376.97;;;1.30;100.00
35553;BME280;21656;46.054;13.614;2023-01-29T19:52:59;101378.13;;;1.20;100.00
35553;BME280;21656;46.054;13.614;2023-01-29T19:55:25;101383.22;;;1.28;100.00
35553;BME280;21656;46.054;13.614;2023-01-29T19:57:51;101381.22;;;1.38;100.00
35553;BME280;21656;46.054;13.614;2023-01-29T20:00:18;101381.03;;;1.44;100.00
35553;BME280;21656;46.054;13.614;2023-01-29T20:02:43;101387.25;;;1.43;100.00
35553;BME280;21656;46.054;13.614;2023-01-29T20:05:09;101382.31;;;1.29;100.00
35553;BME280;21656;46.054;13.614;2023-01-29T20:07:38;101389.50;;;1.25;100.00
35553;BME280;21656;46.054;13.614;2023-01-29T20:10:06;101388.03;;;1.14;100.00
35553;BME280;21656;46.054;13.614;2023-01-29T20:12:33;101384.88;;;0.99;100.00
35553;BME280;21656;46.054;13.614;2023-01-29T20:14:59;101382.78;;;1.12;100.00
35553;BME280;21656;46.054;13.614;2023-01-29T20:17:24;101380.44;;;1.00;100.00
35553;BME280;21656;46.054;13.614;2023-01-29T20:19:50;101381.00;;;1.13;100.00
35553;BME280;21656;46.054;13.614;2023-01-29T20:22:15;101376.00;;;1.00;100.00
35553;BME280;21656;46.054;13.614;2023-01-29T20:24:41;101384.50;;;1.13;100.00
35553;BME280;21656;46.054;13.614;2023-01-29T20:27:11;101382.38;;;0.93;100.00
35553;BME280;21656;46.054;13.614;2023-01-29T20:29:37;101374.41;;;0.93;100.00
35553;BME280;21656;46.054;13.614;2023-01-29T20:32:04;101383.13;;;0.98;100.00
35553;BME280;21656;46.054;13.614;2023-01-29T20:34:30;101374.50;;;0.89;100.00
35553;BME280;21656;46.054;13.614;2023-01-29T20:36:56;101379.59;;;0.98;100.00
35553;BME280;21656;46.054;13.614;2023-01-29T20:39:22;101378.75;;;0.96;100.00
35553;BME280;21656;46.054;13.614;2023-01-29T20:41:47;101383.63;;;1.14;100.00
35553;BME280;21656;46.054;13.614;2023-01-29T20:44:13;101391.78;;;1.06;100.00
35553;BME280;21656;46.054;13.614;2023-01-29T20:46:39;101380.91;;;1.16;100.00
35553;BME280;21656;46.054;13.614;2023-01-29T20:49:04;101390.47;;;1.21;100.00
35553;BME280;21656;46.054;13.614;2023-01-29T20:51:32;101380.88;;;1.17;100.00
35553;BME280;21656;46.054;13.614;2023-01-29T20:53:57;101382.59;;;1.18;100.00
35553;BME280;21656;46.054;13.614;2023-01-29T20:56:23;101395.75;;;1.23;100.00
35553;BME280;21656;46.054;13.614;2023-01-29T20:58:49;101388.78;;;1.19;100.00
35553;BME280;21656;46.054;13.614;2023-01-29T21:01:17;101385.97;;;1.25;100.00
35553;BME280;21656;46.054;13.614;2023-01-29T21:03:43;101390.19;;;0.99;100.00
35553;BME280;21656;46.054;13.614;2023-01-29T21:06:10;101388.41;;;1.00;100.00
35553;BME280;21656;46.054;13.614;2023-01-29T21:08:36;101390.41;;;0.90;100.00
35553;BME280;21656;46.054;13.614;2023-01-29T21:11:03;101388.91;;;0.80;100.00
35553;BME280;21656;46.054;13.614;2023-01-29T21:13:29;101394.03;;;0.86;100.00
35553;BME280;21656;46.054;13.614;2023-01-29T21:15:55;101391.34;;;0.88;100.00
35553;BME280;21656;46.054;13.614;2023-01-29T21:18:20;101391.19;;;0.94;100.00
35553;BME280;21656;46.054;13.614;2023-01-29T21:20:48;101390.69;;;0.79;100.00
35553;BME280;21656;46.054;13.614;2023-01-29T21:23:14;101391.53;;;0.80;100.00
35553;BME280;21656;46.054;13.614;2023-01-29T21:25:39;101392.50;;;0.77;100.00
35553;BME280;21656;46.054;13.614;2023-01-29T21:28:05;101398.66;;;0.78;100.00
35553;BME280;21656;46.054;13.614;2023-01-29T21:30:31;101395.91;;;0.82;100.00
35553;BME280;21656;46.054;13.614;2023-01-29T21:32:56;101394.69;;;0.96;100.00
35553;BME280;21656;46.054;13.614;2023-01-29T21:35:22;101395.63;;;0.93;100.00
35553;BME280;21656;46.054;13.614;2023-01-29T21:37:48;101390.41;;;0.90;100.00
35553;BME280;21656;46.054;13.614;2023-01-29T21:40:13;101396.63;;;0.89;100.00